METAR Data
IDs: Format: Raw Decoded Include TAF

Data at: 0338 UTC 18 Jun 2019

PASC 180310Z 05011KT 10SM OVC004 01/M01 A3008 RMK AO2 T00111006
PASC 180253Z 05012KT 10SM OVC005 02/M01 A3008 RMK AO2 SLP187 T00171006 56002
PASC 180153Z 06011KT 10SM OVC006 02/00 A3008 RMK AO2 SLP187 T00170000
PASC 180053Z 06010KT 10SM OVC005 02/00 A3008 RMK AO2 SLP188 T00170000
PASC 172353Z 07013KT 10SM OVC005 02/00 A3009 RMK AO2 SLP189 T00220000 10022 20006 53003
PASC 172314Z 06013KT 10SM OVC005 02/00 A3008 RMK AO2 T00220000
PASC 172253Z 07013KT 10SM OVC004 02/00 A3008 RMK AO2 SLP186 T00220000
PASC 172249Z 07014KT 10SM OVC004 02/00 A3008 RMK AO2
PASC 172153Z 06013KT 10SM OVC005 02/00 A3008 RMK AO2 SLP186 T00170000
PASC 172132Z 05014KT 10SM OVC005 01/00 A3008 RMK AO2 T00110000
PASC 172053Z 06015KT 10SM OVC004 01/M01 A3008 RMK AO2 SLP188 T00111006 53006
PASC 171953Z 06012KT 10SM OVC004 01/00 A3008 RMK AO2 SLP186 T00110000
PASC 171853Z 06011KT 10SM OVC004 01/M01 A3007 RMK AO2 SLP182 T00061006
PASC 171756Z 08012KT 6SM BR OVC004 01/00 A3006 RMK AO2 T00060000
PASC 171753Z 08013KT 6SM BR OVC005 01/M01 A3006 RMK AO2 SLP181 T00061006 10011 20000 52013
PASC 171746Z 06013KT 6SM BR OVC005 01/M01 A3006 RMK AO2 T00061006
PASC 171653Z 08012KT 2SM BR OVC003 00/M01 A3005 RMK AO2 SLP177 VIS 1V3 T00001006
PASC 171553Z 07013KT 3/4SM R06/4000VP6000FT BR OVC003 00/M01 A3004 RMK AO2 SLP172 VIS 1/2V1 T00001006
PASC 171505Z 07014KT 3/4SM R06/2600VP6000FT BR VV002 00/M01 A3003 RMK AO2 VIS 1/2V1 T00001006
PASC 171453Z 06014KT 1/4SM R06/2200V3500FT FG VV002 00/M01 A3003 RMK AO2 SLP168 T00001006 51006
PASC 171426Z 06013KT 1/2SM R06/2200V3000FT FG VV002 00/M01 A3002 RMK AO2 VIS 1/4V3/4 T00001006
PASC 171353Z 06015KT 1SM R06/P6000FT BR VV003 00/M01 A3002 RMK AO2 SLP166 T00001006
PASC 171306Z 05015KT 1/2SM R06/4000VP6000FT FG VV003 01/00 A3001 RMK AO2 T00060000
PASC 171253Z 06015KT 1/4SM R06/3500V5000FT FG VV003 01/00 A3001 RMK AO2 SLP162 T00060000
PASC 171212Z 06018KT 1/2SM R06/4500VP6000FT FG OVC002 01/00 A2999 RMK AO2 T00060000
PASC 171153Z 06014KT 1 1/2SM BR OVC003 01/00 A2999 RMK AO2 SLP155 60000 T00110000 10028 20006 53011
PASC 171151Z 06013KT 1 3/4SM BR OVC003 01/00 A2999 RMK AO2
PASC 171053Z 05016KT 4SM BR OVC004 01/00 A2997 RMK AO2 SLP150 T00110000
PASC 170953Z 06016KT 10SM OVC004 02/01 A2996 RMK AO2 CIG 003V009 SLP147 T00170006
PASC 170853Z 06016KT 10SM OVC003 02/01 A2995 RMK AO2 SLP144 60000 T00170006 401330017 53016
PASC 170753Z 05016KT 10SM OVC004 02/01 A2993 RMK AO2 RAE26 SLP135 P0000 T00220011
PASC 170653Z 08011KT 10SM -RA OVC005 02/01 A2992 RMK AO2 SLP131 P0000 T00220011
PASC 170553Z 07011KT 7SM -RA OVC005 03/02 A2991 RMK AO2 SLP128 P0000 60000 T00280017 10133 20028 53005
PASC 170533Z 07011KT 5SM -RA BR BKN005 BKN039 OVC055 03/02 A2991 RMK AO2 P0000 T00330022
PASC 170507Z 06007KT 6SM -RA BR FEW004 OVC055 03/02 A2991 RMK AO2 P0000 T00330022
PASC 170453Z 08006KT 10SM -RA OVC055 04/02 A2990 RMK AO2 SLP125 P0000 T00390022
PASC 170353Z 03007KT 10SM -RA FEW045 OVC065 06/02 A2989 RMK AO2 RAB04 SLP123 P0000 T00560022
PASC 170253Z 04008KT 10SM FEW060 SCT075 OVC090 07/M01 A2989 RMK AO2 RAB35E44 SLP123 P0000 60000 T00721006 58005
PASC 170153Z 02009KT 10SM BKN043 BKN080 08/02 A2990 RMK AO2 SLP125 T00780022
PASC 170053Z 01011KT 10SM BKN043 OVC100 11/03 A2991 RMK AO2 SLP128 T01060033
PASC 162353Z 32010KT 10SM OVC042 13/01 A2991 RMK AO2 SLP129 T01330011 10133 20094 56013
PASC 162253Z 30009KT 10SM BKN036 OVC043 12/02 A2992 RMK AO2 SLP132 T01220017
PASC 162153Z 31007KT 10SM OVC043 12/01 A2993 RMK AO2 SLP137 T01220006
PASC 162053Z 31006KT 10SM OVC042 12/M01 A2995 RMK AO2 SLP141 T01171011 57006
PASC 161953Z 27007KT 10SM OVC042 11/M01 A2995 RMK AO2 SLP144 T01111011
PASC 161853Z 26006KT 10SM OVC045 11/00 A2996 RMK AO2 SLP146 T01060000
PASC 161753Z 24007KT 10SM OVC043 09/01 A2997 RMK AO2 SLP148 T00940006 10094 20033 58006
PASC 161653Z 26006KT 10SM BKN042 OVC090 08/01 A2998 RMK AO2 SLP152 T00830011
PASC 161553Z 24009KT 10SM BKN042 BKN090 BKN140 08/01 A2998 RMK AO2 SLP153 T00780011